sensor_id;sensor_type;location;lat;lon;timestamp;pressure;altitude;pressure_sealevel;temperature;humidity
34931;BME280;21134;49.646;8.560;2024-02-23T00:01:47;98244.66;;;8.15;74.79
34931;BME280;21134;49.646;8.560;2024-02-23T00:04:13;98248.13;;;8.12;75.32
34931;BME280;21134;49.646;8.560;2024-02-23T00:06:40;98256.41;;;8.19;75.03
34931;BME280;21134;49.646;8.560;2024-02-23T00:09:06;98262.19;;;8.26;75.50
34931;BME280;21134;49.646;8.560;2024-02-23T00:11:33;98277.38;;;8.29;75.44
34931;BME280;21134;49.646;8.560;2024-02-23T00:14:04;98274.09;;;8.25;75.87
34931;BME280;21134;49.646;8.560;2024-02-23T00:16:31;98307.53;;;8.13;76.56
34931;BME280;21134;49.646;8.560;2024-02-23T00:18:57;98299.97;;;8.10;76.57
34931;BME280;21134;49.646;8.560;2024-02-23T00:21:24;98306.84;;;8.06;76.90
34931;BME280;21134;49.646;8.560;2024-02-23T00:23:50;98304.44;;;8.02;77.98
34931;BME280;21134;49.646;8.560;2024-02-23T00:26:16;98311.44;;;7.93;78.76
34931;BME280;21134;49.646;8.560;2024-02-23T00:28:44;98325.78;;;7.96;79.48
34931;BME280;21134;49.646;8.560;2024-02-23T00:31:11;98329.78;;;7.72;80.85
34931;BME280;21134;49.646;8.560;2024-02-23T00:33:37;98331.69;;;7.64;81.33
34931;BME280;21134;49.646;8.560;2024-02-23T00:36:07;98329.44;;;7.52;82.50
34931;BME280;21134;49.646;8.560;2024-02-23T00:38:33;98324.47;;;7.45;83.58
34931;BME280;21134;49.646;8.560;2024-02-23T00:41:00;98313.63;;;7.39;83.12
34931;BME280;21134;49.646;8.560;2024-02-23T00:43:26;98304.47;;;7.30;83.19
34931;BME280;21134;49.646;8.560;2024-02-23T00:45:55;98318.34;;;7.18;84.12
34931;BME280;21134;49.646;8.560;2024-02-23T00:48:22;98313.44;;;7.09;84.70
34931;BME280;21134;49.646;8.560;2024-02-23T00:50:48;98317.66;;;7.10;83.87
34931;BME280;21134;49.646;8.560;2024-02-23T00:53:15;98308.44;;;7.06;84.61
34931;BME280;21134;49.646;8.560;2024-02-23T00:55:42;98321.22;;;7.02;85.07
34931;BME280;21134;49.646;8.560;2024-02-23T00:58:09;98324.69;;;6.99;84.30
34931;BME280;21134;49.646;8.560;2024-02-23T01:00:35;98318.91;;;6.92;86.45
34931;BME280;21134;49.646;8.560;2024-02-23T01:03:04;98329.16;;;6.88;84.29
34931;BME280;21134;49.646;8.560;2024-02-23T01:05:30;98334.25;;;6.88;84.85
34931;BME280;21134;49.646;8.560;2024-02-23T01:07:57;98334.28;;;6.86;83.82
34931;BME280;21134;49.646;8.560;2024-02-23T01:10:23;98332.66;;;6.82;83.57
34931;BME280;21134;49.646;8.560;2024-02-23T01:12:50;98332.53;;;6.88;84.21
34931;BME280;21134;49.646;8.560;2024-02-23T01:15:16;98338.38;;;6.93;82.22
34931;BME280;21134;49.646;8.560;2024-02-23T01:17:43;98345.94;;;6.96;82.57
34931;BME280;21134;49.646;8.560;2024-02-23T01:20:11;98356.88;;;6.98;81.32
34931;BME280;21134;49.646;8.560;2024-02-23T01:22:37;98370.47;;;6.99;81.86
34931;BME280;21134;49.646;8.560;2024-02-23T01:25:04;98370.47;;;6.97;81.75
34931;BME280;21134;49.646;8.560;2024-02-23T01:27:31;98375.31;;;7.10;80.23
34931;BME280;21134;49.646;8.560;2024-02-23T01:29:57;98381.03;;;7.19;80.52
34931;BME280;21134;49.646;8.560;2024-02-23T01:32:24;98379.19;;;7.28;79.82
34931;BME280;21134;49.646;8.560;2024-02-23T01:34:50;98401.06;;;7.33;79.44
34931;BME280;21134;49.646;8.560;2024-02-23T01:37:18;98406.94;;;7.37;81.13
34931;BME280;21134;49.646;8.560;2024-02-23T01:39:45;98420.63;;;7.31;82.81
34931;BME280;21134;49.646;8.560;2024-02-23T01:42:12;98428.28;;;7.30;81.59
34931;BME280;21134;49.646;8.560;2024-02-23T01:44:38;98432.16;;;7.07;81.09
34931;BME280;21134;49.646;8.560;2024-02-23T01:47:05;98434.38;;;6.81;81.01
34931;BME280;21134;49.646;8.560;2024-02-23T01:49:32;98432.06;;;6.68;79.43
34931;BME280;21134;49.646;8.560;2024-02-23T01:52:00;98426.34;;;6.56;79.22
34931;BME280;21134;49.646;8.560;2024-02-23T01:54:28;98414.75;;;6.42;79.97
34931;BME280;21134;49.646;8.560;2024-02-23T01:56:56;98411.44;;;6.37;80.50
34931;BME280;21134;49.646;8.560;2024-02-23T01:59:25;98425.94;;;6.32;79.88
34931;BME280;21134;49.646;8.560;2024-02-23T02:01:51;98442.03;;;6.31;82.10
34931;BME280;21134;49.646;8.560;2024-02-23T02:04:18;98458.97;;;6.31;80.50
34931;BME280;21134;49.646;8.560;2024-02-23T02:06:46;98458.13;;;6.28;81.03
34931;BME280;21134;49.646;8.560;2024-02-23T02:09:12;98463.31;;;6.25;81.60
34931;BME280;21134;49.646;8.560;2024-02-23T02:11:46;98466.69;;;6.24;81.73
34931;BME280;21134;49.646;8.560;2024-02-23T02:14:12;98469.50;;;6.06;82.47
34931;BME280;21134;49.646;8.560;2024-02-23T02:16:39;98479.00;;;5.92;82.73
34931;BME280;21134;49.646;8.560;2024-02-23T02:19:06;98476.63;;;5.81;83.60
34931;BME280;21134;49.646;8.560;2024-02-23T02:21:33;98472.53;;;5.72;84.00
34931;BME280;21134;49.646;8.560;2024-02-23T02:23:59;98471.69;;;5.70;83.94
34931;BME280;21134;49.646;8.560;2024-02-23T02:26:26;98474.31;;;5.66;85.39
34931;BME280;21134;49.646;8.560;2024-02-23T02:28:54;98474.44;;;5.55;85.08
34931;BME280;21134;49.646;8.560;2024-02-23T02:31:20;98469.50;;;5.44;85.40
34931;BME280;21134;49.646;8.560;2024-02-23T02:33:46;98483.09;;;5.39;86.32
34931;BME280;21134;49.646;8.560;2024-02-23T02:36:13;98484.88;;;5.33;86.96
34931;BME280;21134;49.646;8.560;2024-02-23T02:38:40;98500.13;;;5.29;87.54
34931;BME280;21134;49.646;8.560;2024-02-23T02:41:06;98500.19;;;5.24;87.54
34931;BME280;21134;49.646;8.560;2024-02-23T02:43:32;98503.56;;;5.25;87.82
34931;BME280;21134;49.646;8.560;2024-02-23T02:46:00;98502.78;;;5.21;88.32
34931;BME280;21134;49.646;8.560;2024-02-23T02:48:27;98503.59;;;5.22;87.90
34931;BME280;21134;49.646;8.560;2024-02-23T02:50:53;98506.03;;;5.29;87.47
34931;BME280;21134;49.646;8.560;2024-02-23T02:53:20;98495.94;;;5.28;87.46
34931;BME280;21134;49.646;8.560;2024-02-23T02:55:47;98499.34;;;5.25;88.10
34931;BME280;21134;49.646;8.560;2024-02-23T02:58:14;98496.84;;;5.22;88.35
34931;BME280;21134;49.646;8.560;2024-02-23T03:00:40;98501.94;;;5.19;87.84
34931;BME280;21134;49.646;8.560;2024-02-23T03:03:08;98493.53;;;5.17;88.48
34931;BME280;21134;49.646;8.560;2024-02-23T03:05:34;98487.63;;;5.15;88.15
34931;BME280;21134;49.646;8.560;2024-02-23T03:08:01;98491.72;;;5.25;86.92
34931;BME280;21134;49.646;8.560;2024-02-23T03:10:27;98494.25;;;5.25;86.75
34931;BME280;21134;49.646;8.560;2024-02-23T03:12:54;98493.31;;;5.32;86.61
34931;BME280;21134;49.646;8.560;2024-02-23T03:15:20;98508.44;;;5.42;85.56
34931;BME280;21134;49.646;8.560;2024-02-23T03:17:47;98518.53;;;5.45;84.72
34931;BME280;21134;49.646;8.560;2024-02-23T03:20:15;98518.50;;;5.49;85.40
34931;BME280;21134;49.646;8.560;2024-02-23T03:22:42;98516.75;;;5.53;85.71
34931;BME280;21134;49.646;8.560;2024-02-23T03:25:08;98509.88;;;5.63;84.78
34931;BME280;21134;49.646;8.560;2024-02-23T03:27:36;98524.19;;;5.68;85.43
34931;BME280;21134;49.646;8.560;2024-02-23T03:30:03;98514.72;;;5.79;84.09
34931;BME280;21134;49.646;8.560;2024-02-23T03:32:30;98517.94;;;5.91;84.16
34931;BME280;21134;49.646;8.560;2024-02-23T03:35:01;98512.13;;;5.82;84.11
34931;BME280;21134;49.646;8.560;2024-02-23T03:37:29;98508.00;;;5.75;85.36
34931;BME280;21134;49.646;8.560;2024-02-23T03:39:54;98495.38;;;5.71;85.05
34931;BME280;21134;49.646;8.560;2024-02-23T03:42:21;98496.28;;;5.68;86.28
34931;BME280;21134;49.646;8.560;2024-02-23T03:44:47;98499.59;;;5.72;85.66
34931;BME280;21134;49.646;8.560;2024-02-23T03:47:14;98498.72;;;5.74;85.57
34931;BME280;21134;49.646;8.560;2024-02-23T03:49:40;98502.09;;;5.75;86.21
34931;BME280;21134;49.646;8.560;2024-02-23T03:52:07;98507.00;;;5.86;85.21
34931;BME280;21134;49.646;8.560;2024-02-23T03:54:34;98502.00;;;5.81;85.36
34931;BME280;21134;49.646;8.560;2024-02-23T03:57:01;98504.59;;;5.78;85.60
34931;BME280;21134;49.646;8.560;2024-02-23T03:59:27;98505.50;;;5.72;85.84
34931;BME280;21134;49.646;8.560;2024-02-23T04:01:54;98501.28;;;5.73;86.57
34931;BME280;21134;49.646;8.560;2024-02-23T04:04:20;98498.78;;;5.71;87.03
34931;BME280;21134;49.646;8.560;2024-02-23T04:06:47;98501.34;;;5.67;86.63
34931;BME280;21134;49.646;8.560;2024-02-23T04:09:13;98496.41;;;5.57;86.80
34931;BME280;21134;49.646;8.560;2024-02-23T04:11:41;98499.91;;;5.47;88.04
34931;BME280;21134;49.646;8.560;2024-02-23T04:14:07;98503.34;;;5.43;87.75
34931;BME280;21134;49.646;8.560;2024-02-23T04:16:34;98510.19;;;5.36;89.24
34931;BME280;21134;49.646;8.560;2024-02-23T04:19:00;98506.00;;;5.32;89.22
34931;BME280;21134;49.646;8.560;2024-02-23T04:21:27;98503.53;;;5.26;89.82
34931;BME280;21134;49.646;8.560;2024-02-23T04:23:53;98512.06;;;5.21;90.59
34931;BME280;21134;49.646;8.560;2024-02-23T04:26:20;98520.59;;;5.15;90.48
34931;BME280;21134;49.646;8.560;2024-02-23T04:28:48;98518.91;;;5.12;90.05
34931;BME280;21134;49.646;8.560;2024-02-23T04:31:14;98523.16;;;5.10;89.99
34931;BME280;21134;49.646;8.560;2024-02-23T04:33:41;98525.69;;;5.10;89.46
34931;BME280;21134;49.646;8.560;2024-02-23T04:36:07;98523.22;;;5.06;89.60
34931;BME280;21134;49.646;8.560;2024-02-23T04:38:34;98522.44;;;4.98;90.41
34931;BME280;21134;49.646;8.560;2024-02-23T04:41:02;98520.00;;;4.90;91.64
34931;BME280;21134;49.646;8.560;2024-02-23T04:43:29;98523.41;;;4.89;90.74
34931;BME280;21134;49.646;8.560;2024-02-23T04:45:57;98527.66;;;4.84;91.18
34931;BME280;21134;49.646;8.560;2024-02-23T04:48:23;98531.09;;;4.77;91.85
34931;BME280;21134;49.646;8.560;2024-02-23T04:50:50;98531.97;;;4.76;92.22
34931;BME280;21134;49.646;8.560;2024-02-23T04:53:16;98535.22;;;4.87;91.51
34931;BME280;21134;49.646;8.560;2024-02-23T04:55:43;98536.06;;;4.87;91.92
34931;BME280;21134;49.646;8.560;2024-02-23T04:58:09;98532.66;;;4.90;91.90
34931;BME280;21134;49.646;8.560;2024-02-23T05:00:37;98537.72;;;4.95;92.26
34931;BME280;21134;49.646;8.560;2024-02-23T05:03:05;98538.50;;;4.98;92.16
34931;BME280;21134;49.646;8.560;2024-02-23T05:05:32;98529.13;;;5.08;91.38
34931;BME280;21134;49.646;8.560;2024-02-23T05:07:58;98535.03;;;5.08;90.20
34931;BME280;21134;49.646;8.560;2024-02-23T05:10:25;98532.53;;;5.02;91.01
34931;BME280;21134;49.646;8.560;2024-02-23T05:12:52;98530.00;;;5.01;91.55
34931;BME280;21134;49.646;8.560;2024-02-23T05:15:18;98528.31;;;5.03;90.09
34931;BME280;21134;49.646;8.560;2024-02-23T05:17:45;98524.00;;;5.09;90.38
34931;BME280;21134;49.646;8.560;2024-02-23T05:20:13;98520.63;;;5.10;89.90
34931;BME280;21134;49.646;8.560;2024-02-23T05:22:40;98521.44;;;5.14;88.46
34931;BME280;21134;49.646;8.560;2024-02-23T05:25:07;98518.84;;;5.20;88.71
34931;BME280;21134;49.646;8.560;2024-02-23T05:27:34;98510.34;;;5.24;88.37
34931;BME280;21134;49.646;8.560;2024-02-23T05:30:00;98507.78;;;5.26;88.49
34931;BME280;21134;49.646;8.560;2024-02-23T05:32:27;98511.97;;;5.30;87.49
34931;BME280;21134;49.646;8.560;2024-02-23T05:35:14;98511.13;;;5.26;86.42
34931;BME280;21134;49.646;8.560;2024-02-23T05:37:41;98514.50;;;5.30;86.19
34931;BME280;21134;49.646;8.560;2024-02-23T05:40:08;98515.13;;;5.47;83.81
34931;BME280;21134;49.646;8.560;2024-02-23T05:42:36;98527.84;;;5.46;84.19
34931;BME280;21134;49.646;8.560;2024-02-23T05:45:03;98531.22;;;5.45;85.05
34931;BME280;21134;49.646;8.560;2024-02-23T05:47:29;98534.56;;;5.48;85.37
34931;BME280;21134;49.646;8.560;2024-02-23T05:49:56;98534.47;;;5.54;85.13
34931;BME280;21134;49.646;8.560;2024-02-23T05:52:24;98544.63;;;5.56;85.18
34931;BME280;21134;49.646;8.560;2024-02-23T05:54:50;98547.84;;;5.67;83.59
34931;BME280;21134;49.646;8.560;2024-02-23T05:57:18;98548.75;;;5.63;83.32
34931;BME280;21134;49.646;8.560;2024-02-23T05:59:45;98550.47;;;5.63;83.27
34931;BME280;21134;49.646;8.560;2024-02-23T06:02:11;98541.97;;;5.65;84.17
34931;BME280;21134;49.646;8.560;2024-02-23T06:04:40;98554.63;;;5.68;83.06
34931;BME280;21134;49.646;8.560;2024-02-23T06:07:06;98556.22;;;5.74;81.96
34931;BME280;21134;49.646;8.560;2024-02-23T06:09:35;98556.16;;;5.80;81.55
34931;BME280;21134;49.646;8.560;2024-02-23T06:12:02;98558.75;;;5.75;82.58
34931;BME280;21134;49.646;8.560;2024-02-23T06:14:28;98571.44;;;5.75;83.08
34931;BME280;21134;49.646;8.560;2024-02-23T06:16:55;98567.16;;;5.79;82.07
34931;BME280;21134;49.646;8.560;2024-02-23T06:19:21;98573.94;;;5.78;83.05
34931;BME280;21134;49.646;8.560;2024-02-23T06:21:48;98573.94;;;5.78;81.97
34931;BME280;21134;49.646;8.560;2024-02-23T06:24:15;98578.97;;;5.80;82.52
34931;BME280;21134;49.646;8.560;2024-02-23T06:26:43;98584.09;;;5.77;83.14
34931;BME280;21134;49.646;8.560;2024-02-23T06:29:10;98580.72;;;5.76;83.26
34931;BME280;21134;49.646;8.560;2024-02-23T06:31:38;98580.75;;;5.73;82.63
34931;BME280;21134;49.646;8.560;2024-02-23T06:34:04;98580.75;;;5.75;83.97
34931;BME280;21134;49.646;8.560;2024-02-23T06:36:31;98585.91;;;5.69;83.20
34931;BME280;21134;49.646;8.560;2024-02-23T06:38:57;98585.91;;;5.69;83.83
34931;BME280;21134;49.646;8.560;2024-02-23T06:41:24;98596.81;;;5.74;83.80
34931;BME280;21134;49.646;8.560;2024-02-23T06:43:52;98597.75;;;5.67;84.24
34931;BME280;21134;49.646;8.560;2024-02-23T06:46:19;98602.06;;;5.60;85.03
34931;BME280;21134;49.646;8.560;2024-02-23T06:48:46;98606.28;;;5.63;85.43
34931;BME280;21134;49.646;8.560;2024-02-23T06:51:12;98602.84;;;5.67;84.68
34931;BME280;21134;49.646;8.560;2024-02-23T06:53:40;98588.47;;;5.66;85.44
34931;BME280;21134;49.646;8.560;2024-02-23T06:56:07;98595.25;;;5.65;86.00
34931;BME280;21134;49.646;8.560;2024-02-23T06:58:33;98585.94;;;5.64;86.16
34931;BME280;21134;49.646;8.560;2024-02-23T07:01:01;98589.31;;;5.66;85.79
34931;BME280;21134;49.646;8.560;2024-02-23T07:03:30;98585.97;;;5.63;85.90
34931;BME280;21134;49.646;8.560;2024-02-23T07:05:57;98584.25;;;5.66;85.39
34931;BME280;21134;49.646;8.560;2024-02-23T07:08:24;98579.16;;;5.66;85.83
34931;BME280;21134;49.646;8.560;2024-02-23T07:10:50;98586.66;;;5.74;85.23
34931;BME280;21134;49.646;8.560;2024-02-23T07:13:17;98587.53;;;5.74;84.95
34931;BME280;21134;49.646;8.560;2024-02-23T07:15:44;98588.22;;;5.86;84.22
34931;BME280;21134;49.646;8.560;2024-02-23T07:18:12;98585.69;;;5.86;83.45
34931;BME280;21134;49.646;8.560;2024-02-23T07:20:38;98583.22;;;5.79;83.58
34931;BME280;21134;49.646;8.560;2024-02-23T07:23:05;98585.00;;;5.73;84.08
34931;BME280;21134;49.646;8.560;2024-02-23T07:25:31;98586.59;;;5.81;83.44
34931;BME280;21134;49.646;8.560;2024-02-23T07:27:58;98585.78;;;5.76;82.90
34931;BME280;21134;49.646;8.560;2024-02-23T07:30:24;98591.91;;;5.62;84.18
34931;BME280;21134;49.646;8.560;2024-02-23T07:32:51;98596.13;;;5.61;82.54
34931;BME280;21134;49.646;8.560;2024-02-23T07:35:19;98588.59;;;5.55;82.85
34931;BME280;21134;49.646;8.560;2024-02-23T07:37:45;98581.00;;;5.52;83.57
34931;BME280;21134;49.646;8.560;2024-02-23T07:40:12;98599.66;;;5.48;83.68
34931;BME280;21134;49.646;8.560;2024-02-23T07:42:39;98598.00;;;5.45;84.31
34931;BME280;21134;49.646;8.560;2024-02-23T07:45:06;98598.84;;;5.44;83.75
34931;BME280;21134;49.646;8.560;2024-02-23T07:47:34;98601.38;;;5.49;83.05
34931;BME280;21134;49.646;8.560;2024-02-23T07:50:00;98599.56;;;5.58;83.66
34931;BME280;21134;49.646;8.560;2024-02-23T07:52:28;98602.00;;;5.66;81.85
34931;BME280;21134;49.646;8.560;2024-02-23T07:54:55;98607.03;;;5.69;81.92
34931;BME280;21134;49.646;8.560;2024-02-23T07:57:21;98606.97;;;5.75;81.85
34931;BME280;21134;49.646;8.560;2024-02-23T07:59:48;98608.53;;;5.87;81.82
34931;BME280;21134;49.646;8.560;2024-02-23T08:02:15;98608.22;;;6.12;81.09
34931;BME280;21134;49.646;8.560;2024-02-23T08:04:41;98611.53;;;6.17;80.46
34931;BME280;21134;49.646;8.560;2024-02-23T08:07:08;98612.41;;;6.14;80.32
34931;BME280;21134;49.646;8.560;2024-02-23T08:09:36;98620.91;;;6.12;80.23
34931;BME280;21134;49.646;8.560;2024-02-23T08:12:03;98619.88;;;6.25;79.29
34931;BME280;21134;49.646;8.560;2024-02-23T08:14:30;98623.13;;;6.36;78.17
34931;BME280;21134;49.646;8.560;2024-02-23T08:16:58;98630.47;;;6.55;77.12
34931;BME280;21134;49.646;8.560;2024-02-23T08:19:24;98627.63;;;6.73;77.14
34931;BME280;21134;49.646;8.560;2024-02-23T08:21:50;98625.88;;;6.80;77.02
34931;BME280;21134;49.646;8.560;2024-02-23T08:24:17;98624.81;;;6.91;76.68
34931;BME280;21134;49.646;8.560;2024-02-23T08:26:45;98624.53;;;7.08;75.56
34931;BME280;21134;49.646;8.560;2024-02-23T08:29:11;98609.31;;;7.07;76.36
34931;BME280;21134;49.646;8.560;2024-02-23T08:31:38;98611.81;;;7.10;76.75
34931;BME280;21134;49.646;8.560;2024-02-23T08:34:04;98617.53;;;7.21;74.70
34931;BME280;21134;49.646;8.560;2024-02-23T08:36:30;98615.75;;;7.26;74.79
34931;BME280;21134;49.646;8.560;2024-02-23T08:38:57;98623.88;;;7.45;74.64
34931;BME280;21134;49.646;8.560;2024-02-23T08:41:23;98619.16;;;7.25;73.71
34931;BME280;21134;49.646;8.560;2024-02-23T08:43:51;98630.16;;;7.26;74.56
34931;BME280;21134;49.646;8.560;2024-02-23T08:46:19;98615.84;;;7.20;74.41
34931;BME280;21134;49.646;8.560;2024-02-23T08:48:46;98614.91;;;7.26;74.67
34931;BME280;21134;49.646;8.560;2024-02-23T08:51:13;98610.09;;;7.10;73.79
34931;BME280;21134;49.646;8.560;2024-02-23T08:53:40;98609.25;;;7.08;73.76
34931;BME280;21134;49.646;8.560;2024-02-23T08:56:06;98609.50;;;6.96;72.78
34931;BME280;21134;49.646;8.560;2024-02-23T08:58:33;98609.59;;;6.88;74.14
34931;BME280;21134;49.646;8.560;2024-02-23T09:01:01;98608.81;;;6.86;74.53
34931;BME280;21134;49.646;8.560;2024-02-23T09:03:29;98608.88;;;6.83;73.48
34931;BME280;21134;49.646;8.560;2024-02-23T09:05:56;98612.88;;;6.95;73.65
34931;BME280;21134;49.646;8.560;2024-02-23T09:08:23;98617.91;;;6.99;72.45
34931;BME280;21134;49.646;8.560;2024-02-23T09:10:49;98611.13;;;6.98;73.81
34931;BME280;21134;49.646;8.560;2024-02-23T09:13:16;98619.44;;;7.08;72.29
34931;BME280;21134;49.646;8.560;2024-02-23T09:15:42;98606.34;;;7.30;71.88
34931;BME280;21134;49.646;8.560;2024-02-23T09:18:10;98609.50;;;7.44;72.78
34931;BME280;21134;49.646;8.560;2024-02-23T09:20:36;98604.91;;;7.61;71.33
34931;BME280;21134;49.646;8.560;2024-02-23T09:23:03;98603.78;;;7.75;70.19
34931;BME280;21134;49.646;8.560;2024-02-23T09:25:30;98596.81;;;7.84;70.03
34931;BME280;21134;49.646;8.560;2024-02-23T09:27:57;98595.81;;;7.91;71.19
34931;BME280;21134;49.646;8.560;2024-02-23T09:30:23;98593.09;;;7.99;70.25
34931;BME280;21134;49.646;8.560;2024-02-23T09:32:50;98591.41;;;8.00;68.34
34931;BME280;21134;49.646;8.560;2024-02-23T09:35:17;98585.66;;;7.90;69.81
34931;BME280;21134;49.646;8.560;2024-02-23T09:37:44;98594.88;;;7.96;68.75
34931;BME280;21134;49.646;8.560;2024-02-23T09:40:11;98594.63;;;8.08;68.90
34931;BME280;21134;49.646;8.560;2024-02-23T09:42:38;98595.53;;;8.04;68.15
34931;BME280;21134;49.646;8.560;2024-02-23T09:45:06;98598.09;;;8.04;69.09
34931;BME280;21134;49.646;8.560;2024-02-23T09:47:34;98600.38;;;8.16;69.20
34931;BME280;21134;49.646;8.560;2024-02-23T09:50:03;98608.22;;;8.47;67.65
34931;BME280;21134;49.646;8.560;2024-02-23T09:52:32;98600.91;;;8.69;66.63
34931;BME280;21134;49.646;8.560;2024-02-23T09:54:58;98597.47;;;8.70;67.22
34931;BME280;21134;49.646;8.560;2024-02-23T09:57:25;98601.59;;;8.76;67.33
34931;BME280;21134;49.646;8.560;2024-02-23T09:59:51;98599.88;;;8.76;67.41
34931;BME280;21134;49.646;8.560;2024-02-23T10:02:18;98605.56;;;8.88;66.38
34931;BME280;21134;49.646;8.560;2024-02-23T10:04:44;98608.13;;;8.88;66.95
34931;BME280;21134;49.646;8.560;2024-02-23T10:07:14;98598.69;;;8.90;67.17
34931;BME280;21134;49.646;8.560;2024-02-23T10:09:42;98603.84;;;8.88;67.34
34931;BME280;21134;49.646;8.560;2024-02-23T10:12:08;98614.22;;;8.80;66.45
34931;BME280;21134;49.646;8.560;2024-02-23T10:14:35;98613.38;;;8.81;67.07
34931;BME280;21134;49.646;8.560;2024-02-23T10:17:01;98603.25;;;8.78;66.45
34931;BME280;21134;49.646;8.560;2024-02-23T10:19:28;98617.63;;;8.81;66.05
34931;BME280;21134;49.646;8.560;2024-02-23T10:21:55;98601.25;;;8.90;67.00
34931;BME280;21134;49.646;8.560;2024-02-23T10:24:22;98611.00;;;9.08;66.28
34931;BME280;21134;49.646;8.560;2024-02-23T10:26:51;98605.66;;;9.17;66.80
34931;BME280;21134;49.646;8.560;2024-02-23T10:29:18;98599.66;;;9.20;66.83
34931;BME280;21134;49.646;8.560;2024-02-23T10:31:46;98602.38;;;9.12;66.74
34931;BME280;21134;49.646;8.560;2024-02-23T10:34:14;98593.66;;;9.21;65.07
34931;BME280;21134;49.646;8.560;2024-02-23T10:36:44;98586.75;;;9.26;65.40
34931;BME280;21134;49.646;8.560;2024-02-23T10:39:16;98593.25;;;9.36;66.15
34931;BME280;21134;49.646;8.560;2024-02-23T10:41:47;98594.75;;;9.45;65.24
34931;BME280;21134;49.646;8.560;2024-02-23T10:44:21;98583.31;;;9.27;65.29
34931;BME280;21134;49.646;8.560;2024-02-23T10:46:48;98573.59;;;9.40;64.55
34931;BME280;21134;49.646;8.560;2024-02-23T10:49:17;98589.72;;;9.42;66.18
34931;BME280;21134;49.646;8.560;2024-02-23T10:51:45;98584.72;;;9.37;65.84
34931;BME280;21134;49.646;8.560;2024-02-23T10:54:14;98584.13;;;9.59;65.43
34931;BME280;21134;49.646;8.560;2024-02-23T10:56:42;98579.47;;;9.73;64.80
34931;BME280;21134;49.646;8.560;2024-02-23T10:59:09;98574.34;;;9.74;64.43
34931;BME280;21134;49.646;8.560;2024-02-23T11:01:37;98592.16;;;9.76;65.53
34931;BME280;21134;49.646;8.560;2024-02-23T11:04:07;98588.59;;;9.50;65.25
34931;BME280;21134;49.646;8.560;2024-02-23T11:06:34;98588.91;;;9.40;65.62
34931;BME280;21134;49.646;8.560;2024-02-23T11:09:06;98586.34;;;9.40;66.29
34931;BME280;21134;49.646;8.560;2024-02-23T11:11:34;98579.59;;;9.39;67.18
34931;BME280;21134;49.646;8.560;2024-02-23T11:14:03;98587.34;;;9.67;65.58
34931;BME280;21134;49.646;8.560;2024-02-23T11:16:39;98581.41;;;9.65;66.15
34931;BME280;21134;49.646;8.560;2024-02-23T11:19:08;98576.25;;;9.66;66.49
34931;BME280;21134;49.646;8.560;2024-02-23T11:21:35;98571.16;;;9.66;65.54
34931;BME280;21134;49.646;8.560;2024-02-23T11:24:03;98568.81;;;9.59;65.53
34931;BME280;21134;49.646;8.560;2024-02-23T11:26:30;98574.25;;;9.46;64.49
34931;BME280;21134;49.646;8.560;2024-02-23T11:28:57;98558.75;;;9.54;64.53
34931;BME280;21134;49.646;8.560;2024-02-23T11:31:29;98567.00;;;9.64;65.01
34931;BME280;21134;49.646;8.560;2024-02-23T11:33:57;98568.56;;;9.68;64.47
34931;BME280;21134;49.646;8.560;2024-02-23T11:36:24;98569.31;;;9.42;65.59
34931;BME280;21134;49.646;8.560;2024-02-23T11:38:53;98560.63;;;9.47;65.49
34931;BME280;21134;49.646;8.560;2024-02-23T11:41:21;98575.09;;;9.47;66.64
34931;BME280;21134;49.646;8.560;2024-02-23T11:43:48;98570.03;;;9.45;67.54
34931;BME280;21134;49.646;8.560;2024-02-23T11:46:15;98565.47;;;9.57;66.22
34931;BME280;21134;49.646;8.560;2024-02-23T11:48:42;98561.56;;;9.74;65.79
34931;BME280;21134;49.646;8.560;2024-02-23T11:51:10;98559.44;;;9.89;65.15
34931;BME280;21134;49.646;8.560;2024-02-23T11:53:36;98562.84;;;9.89;65.83
34931;BME280;21134;49.646;8.560;2024-02-23T11:56:04;98556.09;;;9.87;64.88
34931;BME280;21134;49.646;8.560;2024-02-23T11:58:31;98550.66;;;9.97;65.21
34931;BME280;21134;49.646;8.560;2024-02-23T12:00:58;98547.63;;;9.86;65.60
34931;BME280;21134;49.646;8.560;2024-02-23T12:03:27;98547.56;;;9.88;65.38
34931;BME280;21134;49.646;8.560;2024-02-23T12:05:55;98549.69;;;9.73;66.40
34931;BME280;21134;49.646;8.560;2024-02-23T12:08:23;98551.75;;;9.61;65.98
34931;BME280;21134;49.646;8.560;2024-02-23T12:10:51;98551.28;;;9.46;66.27
34931;BME280;21134;49.646;8.560;2024-02-23T12:13:18;98553.84;;;9.46;66.23
34931;BME280;21134;49.646;8.560;2024-02-23T12:15:44;98554.69;;;9.47;66.51
34931;BME280;21134;49.646;8.560;2024-02-23T12:18:11;98556.41;;;9.46;66.23
34931;BME280;21134;49.646;8.560;2024-02-23T12:20:37;98549.75;;;9.41;66.45
34931;BME280;21134;49.646;8.560;2024-02-23T12:23:04;98562.88;;;9.27;67.17
34931;BME280;21134;49.646;8.560;2024-02-23T12:25:33;98560.47;;;9.22;67.08
34931;BME280;21134;49.646;8.560;2024-02-23T12:27:59;98563.84;;;9.23;66.59
34931;BME280;21134;49.646;8.560;2024-02-23T12:30:26;98561.22;;;9.26;67.91
34931;BME280;21134;49.646;8.560;2024-02-23T12:33:03;98555.44;;;9.19;68.42
34931;BME280;21134;49.646;8.560;2024-02-23T12:35:29;98563.03;;;9.22;68.55
34931;BME280;21134;49.646;8.560;2024-02-23T12:37:56;98556.91;;;9.28;68.58
34931;BME280;21134;49.646;8.560;2024-02-23T12:40:22;98562.06;;;9.25;68.83
34931;BME280;21134;49.646;8.560;2024-02-23T12:42:50;98563.13;;;9.18;70.16
34931;BME280;21134;49.646;8.560;2024-02-23T12:45:16;98551.25;;;9.17;68.03
34931;BME280;21134;49.646;8.560;2024-02-23T12:47:43;98558.16;;;9.13;70.45
34931;BME280;21134;49.646;8.560;2024-02-23T12:50:09;98555.97;;;9.30;69.61
34931;BME280;21134;49.646;8.560;2024-02-23T12:52:36;98547.75;;;9.52;66.16
34931;BME280;21134;49.646;8.560;2024-02-23T12:55:03;98547.00;;;9.78;65.13
34931;BME280;21134;49.646;8.560;2024-02-23T12:57:30;98546.72;;;9.87;65.30
34931;BME280;21134;49.646;8.560;2024-02-23T12:59:58;98537.88;;;10.27;64.86
34931;BME280;21134;49.646;8.560;2024-02-23T13:02:24;98526.16;;;10.73;62.86
34931;BME280;21134;49.646;8.560;2024-02-23T13:04:51;98540.34;;;11.07;61.36
34931;BME280;21134;49.646;8.560;2024-02-23T13:07:17;98522.53;;;11.29;60.89
34931;BME280;21134;49.646;8.560;2024-02-23T13:09:44;98533.22;;;11.63;60.92